Time;durP1;ratioP1;P1;durP2;ratioP2;P2;SDS_P1;SDS_P2;PMS_P1;PMS_P2;Temp;Humidity;BMP_temperature;BMP_pressure;BME280_temperature;BME280_humidity;BME280_pressure;Samples;Min_cycle;Max_cycle;Signal;HPM_P1;HPM_P2
2024/02/02 00:01:19;;;;;;;;;;;;;;;17.44;42.09;101158.44;10250006;28;1910;-73
2024/02/02 00:06:15;;;;;;;;;;;;;;;17.43;42.04;101152.31;10249790;28;873;-73
2024/02/02 00:11:11;;;;;;;;;;;;;;;17.43;41.93;101146.19;10249728;28;863;-73
2024/02/02 00:16:07;;;;;;;;;;;;;;;17.42;42.18;101121.59;10249635;28;815;-73
2024/02/02 00:21:03;;;;;;;;;;;;;;;17.41;41.92;101127.75;10249355;28;875;-73
2024/02/02 00:25:59;;;;;;;;;;;;;;;17.40;41.96;101117.25;10248519;28;1886;-73
2024/02/02 00:30:55;;;;;;;;;;;;;;;17.40;42.05;101110.22;10248726;28;1273;-73
2024/02/02 00:35:51;;;;;;;;;;;;;;;17.40;42.04;101097.03;10248396;28;933;-73
2024/02/02 00:40:47;;;;;;;;;;;;;;;17.40;41.89;101080.34;10248636;28;982;-73
2024/02/02 00:45:43;;;;;;;;;;;;;;;17.40;41.92;101088.25;10248270;28;1957;-73
2024/02/02 00:50:39;;;;;;;;;;;;;;;17.38;42.03;101075.09;10248378;28;971;-73
2024/02/02 00:55:35;;;;;;;;;;;;;;;17.37;42.11;101081.28;10248629;28;827;-73
2024/02/02 01:00:31;;;;;;;;;;;;;;;17.37;41.93;101078.66;10247851;28;975;-73
2024/02/02 01:05:27;;;;;;;;;;;;;;;17.37;41.88;101069.84;10246922;28;1941;-73
2024/02/02 01:10:23;;;;;;;;;;;;;;;17.36;41.88;101073.38;10246959;28;858;-73
2024/02/02 01:15:19;;;;;;;;;;;;;;;17.36;41.94;101062.84;10247333;28;771;-72
2024/02/02 01:20:15;;;;;;;;;;;;;;;17.35;41.71;101082.22;10247114;28;866;-73
2024/02/02 01:25:12;;;;;;;;;;;;;;;17.34;41.78;101069.91;10247350;28;1894;-73
2024/02/02 01:30:08;;;;;;;;;;;;;;;17.34;41.87;101070.78;10246975;28;1302;-73
2024/02/02 01:35:03;;;;;;;;;;;;;;;17.33;41.66;101057.66;10246353;28;906;-72
2024/02/02 01:39:59;;;;;;;;;;;;;;;17.33;41.89;101053.25;10246377;28;834;-73
2024/02/02 01:44:55;;;;;;;;;;;;;;;17.31;41.81;101055.03;10246073;28;1910;-73
2024/02/02 01:49:51;;;;;;;;;;;;;;;17.30;41.91;101055.94;10246533;28;806;-73
2024/02/02 01:54:47;;;;;;;;;;;;;;;17.30;41.97;101061.22;10246278;28;801;-73
2024/02/02 01:59:43;;;;;;;;;;;;;;;17.29;41.84;101064.72;10246305;28;936;-72
2024/02/02 02:04:39;;;;;;;;;;;;;;;17.28;41.55;101065.63;10245399;28;1882;-73
2024/02/02 02:09:35;;;;;;;;;;;;;;;17.27;41.90;101062.16;10245290;28;817;-73
2024/02/02 02:14:31;;;;;;;;;;;;;;;17.25;41.80;101044.63;10245073;28;881;-73
2024/02/02 02:19:27;;;;;;;;;;;;;;;17.26;41.94;101033.16;10244112;28;942;-73
2024/02/02 02:24:22;;;;;;;;;;;;;;;17.24;41.81;101038.50;10244660;28;1942;-73
2024/02/02 02:29:18;;;;;;;;;;;;;;;17.21;41.86;101024.50;10245292;28;1161;-72
2024/02/02 02:34:14;;;;;;;;;;;;;;;17.21;41.87;101033.28;10245043;28;791;-73
2024/02/02 02:39:11;;;;;;;;;;;;;;;17.20;41.79;101036.81;10243658;28;843;-73
2024/02/02 02:44:07;;;;;;;;;;;;;;;17.20;41.87;101047.34;10244087;28;1982;-73
2024/02/02 02:49:03;;;;;;;;;;;;;;;17.19;41.84;101042.13;10244058;28;809;-73
2024/02/02 02:53:59;;;;;;;;;;;;;;;17.18;41.82;101038.59;10244580;28;837;-73
2024/02/02 02:58:55;;;;;;;;;;;;;;;17.17;41.80;101034.25;10244826;28;810;-73
2024/02/02 03:03:51;;;;;;;;;;;;;;;17.16;42.01;101021.09;10243677;28;1902;-72
2024/02/02 03:08:47;;;;;;;;;;;;;;;17.15;41.79;101012.31;10243358;28;908;-73
2024/02/02 03:13:42;;;;;;;;;;;;;;;17.13;41.63;101002.72;10243694;28;784;-73
2024/02/02 03:18:38;;;;;;;;;;;;;;;17.13;41.77;101008.84;10243798;28;761;-72
2024/02/02 03:23:34;;;;;;;;;;;;;;;17.14;41.75;101012.38;10243466;28;1880;-73
2024/02/02 03:28:30;;;;;;;;;;;;;;;17.11;42.12;101021.19;10244153;28;873;-73
2024/02/02 03:33:26;;;;;;;;;;;;;;;17.11;41.61;101005.41;10249403;28;1110;-73
2024/02/02 03:38:22;;;;;;;;;;;;;;;17.10;41.53;100977.28;10250951;28;869;-73
2024/02/02 03:43:18;;;;;;;;;;;;;;;17.09;41.74;101001.91;10250769;28;1969;-73
2024/02/02 03:48:14;;;;;;;;;;;;;;;17.08;41.71;101010.69;10250571;28;863;-73
2024/02/02 03:53:10;;;;;;;;;;;;;;;17.08;41.42;101006.31;10251662;28;864;-73
2024/02/02 03:58:05;;;;;;;;;;;;;;;17.08;41.63;101015.97;10250309;28;876;-73
2024/02/02 04:03:01;;;;;;;;;;;;;;;17.07;41.60;101012.47;10250608;28;1973;-73
2024/02/02 04:07:57;;;;;;;;;;;;;;;17.08;41.52;101029.13;10250514;28;806;-73
2024/02/02 04:12:53;;;;;;;;;;;;;;;17.06;41.61;101021.28;10250339;28;1145;-73
2024/02/02 04:17:49;;;;;;;;;;;;;;;17.06;41.70;101023.06;10250123;28;785;-73
2024/02/02 04:22:45;;;;;;;;;;;;;;;17.05;41.70;101026.56;10249394;28;1945;-73
2024/02/02 04:27:41;;;;;;;;;;;;;;;17.05;41.47;101024.81;10248569;28;890;-73
2024/02/02 04:32:37;;;;;;;;;;;;;;;17.04;41.68;101009.03;10249175;28;1118;-73
2024/02/02 04:37:33;;;;;;;;;;;;;;;17.05;41.41;101010.75;10249013;28;850;-73
2024/02/02 04:42:29;;;;;;;;;;;;;;;17.06;41.39;100996.72;10247606;28;1990;-73
2024/02/02 04:47:24;;;;;;;;;;;;;;;17.06;41.59;100987.03;10248413;28;770;-73
2024/02/02 04:52:20;;;;;;;;;;;;;;;17.08;41.45;100973.81;10248981;28;842;-73
2024/02/02 04:57:16;;;;;;;;;;;;;;;17.09;41.40;100970.31;10248661;28;877;-73
2024/02/02 05:02:12;;;;;;;;;;;;;;;17.09;41.58;100970.31;10248451;28;1901;-73
2024/02/02 05:07:08;;;;;;;;;;;;;;;17.10;41.47;100974.66;10248308;28;814;-73
2024/02/02 05:12:05;;;;;;;;;;;;;;;17.13;41.50;100966.69;10248153;28;807;-73
2024/02/02 05:17:00;;;;;;;;;;;;;;;17.14;41.43;100978.13;10247868;28;901;-73
2024/02/02 05:21:56;;;;;;;;;;;;;;;17.17;41.41;100975.41;10246435;28;1953;-73
2024/02/02 05:26:52;;;;;;;;;;;;;;;17.16;41.44;100966.66;10247567;28;853;-73
2024/02/02 05:31:48;;;;;;;;;;;;;;;17.18;41.61;100962.19;10247603;28;1310;-73
2024/02/02 05:36:44;;;;;;;;;;;;;;;17.19;41.37;100963.94;10247025;28;885;-73
2024/02/02 05:41:40;;;;;;;;;;;;;;;17.20;41.23;100946.38;10246188;28;1906;-73
2024/02/02 05:46:36;;;;;;;;;;;;;;;17.21;41.50;100932.28;10246784;28;883;-73
2024/02/02 05:51:32;;;;;;;;;;;;;;;17.21;41.27;100914.72;10245953;28;794;-73
2024/02/02 05:56:28;;;;;;;;;;;;;;;17.23;41.13;100904.13;10245736;28;865;-73
2024/02/02 06:01:24;;;;;;;;;;;;;;;17.22;41.40;100897.13;10245605;28;866;-73
2024/02/02 06:06:20;;;;;;;;;;;;;;;17.23;41.24;100883.91;10246049;28;818;-73
2024/02/02 06:11:16;;;;;;;;;;;;;;;17.22;41.09;100892.72;10245133;28;862;-73
2024/02/02 06:16:12;;;;;;;;;;;;;;;17.26;41.14;100889.09;10245014;28;934;-73
2024/02/02 06:21:07;;;;;;;;;;;;;;;17.26;41.09;100889.09;10244365;28;905;-73
2024/02/02 06:26:03;;;;;;;;;;;;;;;17.26;41.27;100864.53;10245303;28;1961;-73
2024/02/02 06:30:59;;;;;;;;;;;;;;;17.26;41.16;100859.25;10244848;28;1276;-72
2024/02/02 06:35:55;;;;;;;;;;;;;;;17.27;41.23;100848.69;10245582;28;848;-73
2024/02/02 06:40:51;;;;;;;;;;;;;;;17.28;40.86;100860.97;10244246;28;822;-72
2024/02/02 06:45:47;;;;;;;;;;;;;;;17.29;40.88;100853.91;10245097;28;1906;-73
2024/02/02 06:50:44;;;;;;;;;;;;;;;17.29;40.88;100852.19;10244100;28;909;-73
2024/02/02 06:55:40;;;;;;;;;;;;;;;17.34;40.44;100853.81;10243998;28;883;-75
2024/02/02 07:00:36;;;;;;;;;;;;;;;17.36;40.44;100838.84;10244003;28;886;-73
2024/02/02 07:05:31;;;;;;;;;;;;;;;17.38;40.24;100831.78;10245041;28;1894;-77
2024/02/02 07:10:27;;;;;;;;;;;;;;;17.35;40.58;100829.22;10252468;28;868;-72
2024/02/02 07:15:23;;;;;;;;;;;;;;;17.35;40.37;100830.06;10251917;28;1043;-72
2024/02/02 07:20:19;;;;;;;;;;;;;;;17.29;40.83;100846.91;10251747;28;794;-72
2024/02/02 07:25:15;;;;;;;;;;;;;;;17.24;40.69;100843.50;10252085;28;1951;-73
2024/02/02 07:30:11;;;;;;;;;;;;;;;17.23;40.84;100843.53;10251648;28;1199;-72
2024/02/02 07:35:07;;;;;;;;;;;;;;;17.25;40.29;100847.00;10251190;28;815;-75
2024/02/02 07:40:03;;;;;;;;;;;;;;;17.27;40.37;100845.22;10251519;28;932;-73
2024/02/02 07:44:58;;;;;;;;;;;;;;;17.25;40.55;100836.47;10251396;28;1971;-81
2024/02/02 07:49:54;;;;;;;;;;;;;;;17.22;40.79;100821.59;10251239;28;926;-73
2024/02/02 07:54:50;;;;;;;;;;;;;;;17.30;40.24;100840.72;10250499;28;869;-80
2024/02/02 07:59:46;;;;;;;;;;;;;;;17.29;40.39;100841.63;10250274;28;784;-74
2024/02/02 08:04:42;;;;;;;;;;;;;;;17.34;40.28;100838.00;10250610;28;1894;-73
2024/02/02 08:09:38;;;;;;;;;;;;;;;17.27;40.51;100832.88;10250297;28;862;-75
2024/02/02 08:14:35;;;;;;;;;;;;;;;17.23;40.16;100844.38;10250327;28;747;-77
2024/02/02 08:19:31;;;;;;;;;;;;;;;17.30;39.69;100837.22;10248064;28;883;-77
2024/02/02 08:24:26;;;;;;;;;;;;;;;17.33;39.43;100847.69;10249751;28;1886;-74
2024/02/02 08:29:22;;;;;;;;;;;;;;;17.30;39.84;100832.81;10249021;28;1351;-73
2024/02/02 08:34:18;;;;;;;;;;;;;;;17.28;40.10;100842.50;10248399;28;933;-74
2024/02/02 08:39:14;;;;;;;;;;;;;;;17.33;39.96;100845.06;10249242;28;873;-74
2024/02/02 08:44:10;;;;;;;;;;;;;;;17.38;39.62;100840.53;10249063;28;1906;-73
2024/02/02 08:49:06;;;;;;;;;;;;;;;17.34;40.06;100832.72;10248472;28;904;-74
2024/02/02 08:54:02;;;;;;;;;;;;;;;17.41;39.69;100818.50;10248904;28;908;-73
2024/02/02 08:58:57;;;;;;;;;;;;;;;17.40;39.86;100822.06;10248097;28;806;-74
2024/02/02 09:03:53;;;;;;;;;;;;;;;17.38;39.88;100823.88;10247817;28;1957;-74
2024/02/02 09:08:49;;;;;;;;;;;;;;;17.41;39.75;100808.81;10247674;28;842;-72
2024/02/02 09:13:45;;;;;;;;;;;;;;;17.43;39.64;100814.06;10246820;28;1267;-74
2024/02/02 09:18:41;;;;;;;;;;;;;;;17.39;40.25;100825.59;10247228;28;944;-75
2024/02/02 09:23:39;;;;;;;;;;;;;;;17.39;40.42;100836.97;10246975;28;1894;-74
2024/02/02 09:28:36;;;;;;;;;;;;;;;17.41;40.00;100821.16;10246432;28;862;-74
2024/02/02 09:33:32;;;;;;;;;;;;;;;17.44;39.70;100819.28;10246051;28;1212;-74
2024/02/02 09:38:28;;;;;;;;;;;;;;;17.42;39.78;100826.41;10246446;28;906;-74
2024/02/02 09:43:24;;;;;;;;;;;;;;;17.41;39.59;100821.16;10246461;28;1969;-74
2024/02/02 09:48:20;;;;;;;;;;;;;;;17.42;39.67;100815.84;10246178;28;802;-74
2024/02/02 09:53:16;;;;;;;;;;;;;;;17.37;39.53;100816.84;10246516;28;865;-73
2024/02/02 09:58:12;;;;;;;;;;;;;;;17.40;39.32;100824.69;10246344;28;1004;-74
2024/02/02 10:03:08;;;;;;;;;;;;;;;17.41;39.59;100821.16;10246092;28;1894;-74
2024/02/02 10:08:03;;;;;;;;;;;;;;;17.43;39.36;100821.97;10245417;28;870;-73
2024/02/02 10:12:59;;;;;;;;;;;;;;;17.39;39.64;100815.91;10246146;28;822;-78
2024/02/02 10:17:55;;;;;;;;;;;;;;;17.36;39.70;100809.84;10245681;28;830;-70
2024/02/02 10:22:51;;;;;;;;;;;;;;;17.31;39.47;100796.78;10245658;28;1898;-70
2024/02/02 10:27:47;;;;;;;;;;;;;;;17.27;39.31;100803.91;10244853;28;913;-70
2024/02/02 10:32:43;;;;;;;;;;;;;;;17.27;38.68;100798.63;10245535;28;1283;-70
2024/02/02 10:37:39;;;;;;;;;;;;;;;17.26;38.66;100802.16;10244566;28;806;-71
2024/02/02 10:42:35;;;;;;;;;;;;;;;17.21;38.11;100806.69;10243972;28;1975;-71
2024/02/02 10:47:31;;;;;;;;;;;;;;;17.20;38.03;100794.41;10244895;28;876;-74
2024/02/02 10:52:27;;;;;;;;;;;;;;;17.24;37.91;100796.09;10244035;28;950;-73
2024/02/02 10:57:22;;;;;;;;;;;;;;;17.30;37.85;100785.38;10243503;28;834;-73
2024/02/02 11:02:18;;;;;;;;;;;;;;;17.31;38.03;100775.69;10244445;28;1898;-75
2024/02/02 11:07:14;;;;;;;;;;;;;;;17.28;38.27;100770.50;10244158;28;885;-79
2024/02/02 11:12:11;;;;;;;;;;;;;;;17.29;38.64;100762.59;10243730;28;873;-73
2024/02/02 11:17:07;;;;;;;;;;;;;;;17.34;38.65;100751.03;10243446;28;906;-73
2024/02/02 11:22:03;;;;;;;;;;;;;;;17.34;38.54;100736.09;10243530;28;1897;-73
2024/02/02 11:26:59;;;;;;;;;;;;;;;17.39;38.55;100738.63;10244809;28;874;-73
2024/02/02 11:31:54;;;;;;;;;;;;;;;17.40;38.84;100717.50;10243682;28;1296;-72
2024/02/02 11:36:51;;;;;;;;;;;;;;;17.38;38.56;100719.31;10242904;28;899;-72
2024/02/02 11:41:48;;;;;;;;;;;;;;;17.41;38.72;100716.59;10243518;28;1907;-72
2024/02/02 11:46:44;;;;;;;;;;;;;;;17.41;39.06;100707.81;10242530;28;1472;-72
2024/02/02 11:51:40;;;;;;;;;;;;;;;17.41;38.77;100707.81;10244404;28;779;-74
2024/02/02 11:56:36;;;;;;;;;;;;;;;17.38;39.24;100707.91;10249802;28;911;-78
2024/02/02 12:01:32;;;;;;;;;;;;;;;17.37;39.29;100711.44;10250278;28;781;-79
2024/02/02 12:06:28;;;;;;;;;;;;;;;17.35;39.51;100702.72;10250021;28;1955;-80
2024/02/02 12:11:25;;;;;;;;;;;;;;;17.35;39.46;100697.44;10250494;28;837;-80
2024/02/02 12:16:21;;;;;;;;;;;;;;;17.34;39.54;100688.66;10249562;28;885;-82
2024/02/02 12:21:17;;;;;;;;;;;;;;;17.35;39.41;100674.59;10250166;28;838;-79
2024/02/02 12:26:13;;;;;;;;;;;;;;;17.35;39.54;100681.63;10249334;28;1894;-79
2024/02/02 12:31:09;;;;;;;;;;;;;;;17.35;39.50;100671.09;10249094;28;1264;-79
2024/02/02 12:36:05;;;;;;;;;;;;;;;17.37;39.70;100659.63;10249000;28;925;-79
2024/02/02 12:41:01;;;;;;;;;;;;;;;17.39;39.54;100649.00;10248953;28;881;-79
2024/02/02 12:45:57;;;;;;;;;;;;;;;17.41;39.63;100655.09;10248833;28;1906;-79
2024/02/02 12:50:53;;;;;;;;;;;;;;;17.45;39.56;100669.94;10248438;28;861;-77
2024/02/02 12:55:50;;;;;;;;;;;;;;;17.47;39.56;100665.47;10248185;28;1009;-83
2024/02/02 13:00:46;;;;;;;;;;;;;;;17.49;39.58;100648.72;10248743;28;930;-75
2024/02/02 13:05:42;;;;;;;;;;;;;;;17.55;39.47;100644.19;10246967;28;1960;-78
2024/02/02 13:10:39;;;;;;;;;;;;;;;17.59;39.48;100627.38;10246152;28;1254;-78
2024/02/02 13:15:34;;;;;;;;;;;;;;;17.65;39.45;100640.38;10246596;28;915;-79
2024/02/02 13:20:30;;;;;;;;;;;;;;;17.71;39.27;100627.91;10247155;28;874;-78
2024/02/02 13:25:26;;;;;;;;;;;;;;;17.79;39.19;100632.06;10247130;28;1886;-77
2024/02/02 13:30:22;;;;;;;;;;;;;;;17.83;39.26;100636.38;10246509;28;1479;-79
2024/02/02 13:35:22;;;;;;;;;;;;;;;17.91;39.30;100639.66;10246356;28;867;-78
2024/02/02 13:40:21;;;;;;;;;;;;;;;17.93;39.22;100640.47;10246956;28;855;-79
2024/02/02 13:45:17;;;;;;;;;;;;;;;17.99;39.31;100639.44;10246668;28;1910;-78
2024/02/02 13:50:19;;;;;;;;;;;;;;;18.02;39.30;100629.63;10245965;28;818;-78
2024/02/02 13:55:15;;;;;;;;;;;;;;;18.06;39.15;100620.72;10245771;28;911;-72
2024/02/02 14:00:13;;;;;;;;;;;;;;;18.10;39.34;100619.75;10245666;28;859;-72
2024/02/02 14:05:09;;;;;;;;;;;;;;;18.11;39.32;100604.78;10244579;28;1969;-71
2024/02/02 14:10:06;;;;;;;;;;;;;;;18.13;39.46;100569.50;10244689;28;1059;-75
2024/02/02 14:15:02;;;;;;;;;;;;;;;18.15;39.47;100553.63;10244274;28;1020;-73
2024/02/02 14:19:58;;;;;;;;;;;;;;;18.10;39.61;100551.16;10245701;28;932;-72
2024/02/02 14:24:54;;;;;;;;;;;;;;;18.07;39.61;100567.03;10244649;28;1957;-72
2024/02/02 14:29:50;;;;;;;;;;;;;;;18.02;39.75;100562.84;10245142;28;1354;-72
2024/02/02 14:34:46;;;;;;;;;;;;;;;18.03;39.61;100569.84;10244480;28;869;-72
2024/02/02 14:39:42;;;;;;;;;;;;;;;17.96;39.90;100564.75;10245462;28;873;-73
2024/02/02 14:44:38;;;;;;;;;;;;;;;17.95;39.90;100570.94;10243997;28;2020;-74
2024/02/02 14:49:34;;;;;;;;;;;;;;;17.96;39.62;100570.03;10244644;28;949;-73
2024/02/02 14:54:30;;;;;;;;;;;;;;;17.88;39.87;100564.13;10244467;28;867;-74
2024/02/02 14:59:31;;;;;;;;;;;;;;;17.87;39.80;100554.50;10243170;28;1242;-74
2024/02/02 15:04:27;;;;;;;;;;;;;;;17.88;39.91;100571.19;10243706;28;1952;-73
2024/02/02 15:09:25;;;;;;;;;;;;;;;17.79;40.08;100581.97;10243585;28;823;-73
2024/02/02 15:14:21;;;;;;;;;;;;;;;17.76;40.30;100609.28;10243419;28;906;-73
2024/02/02 15:19:17;;;;;;;;;;;;;;;17.76;40.40;100606.66;10243488;28;965;-73
2024/02/02 15:24:13;;;;;;;;;;;;;;;17.71;40.52;100621.72;10243262;28;1897;-73
2024/02/02 15:29:10;;;;;;;;;;;;;;;17.70;40.65;100620.88;10248665;28;1406;-73
2024/02/02 15:34:05;;;;;;;;;;;;;;;17.71;40.65;100621.72;10251125;28;958;-72
2024/02/02 15:39:05;;;;;;;;;;;;;;;17.71;40.81;100612.09;10251567;28;858;-72
2024/02/02 15:44:01;;;;;;;;;;;;;;;17.71;40.78;100588.34;10251290;28;1914;-73
2024/02/02 15:48:57;;;;;;;;;;;;;;;17.71;41.06;100585.72;10250643;28;799;-73
2024/02/02 15:53:53;;;;;;;;;;;;;;;17.71;41.13;100590.09;10249775;28;835;-72
2024/02/02 15:58:49;;;;;;;;;;;;;;;17.71;41.39;100593.63;10250800;28;838;-73
2024/02/02 16:03:44;;;;;;;;;;;;;;;17.70;41.28;100594.50;10249955;28;1894;-74
2024/02/02 16:08:40;;;;;;;;;;;;;;;17.72;41.36;100605.88;10249931;28;810;-73
2024/02/02 16:13:36;;;;;;;;;;;;;;;17.73;41.24;100612.00;10249942;28;803;-73
2024/02/02 16:18:34;;;;;;;;;;;;;;;17.70;41.27;100627.94;10250110;28;866;-75
2024/02/02 16:23:30;;;;;;;;;;;;;;;17.70;41.25;100625.28;10249098;28;1890;-72
2024/02/02 16:28:26;;;;;;;;;;;;;;;17.69;41.20;100629.72;10249055;28;866;-73
2024/02/02 16:33:22;;;;;;;;;;;;;;;17.67;41.41;100639.44;10248815;28;1296;-73
2024/02/02 16:38:18;;;;;;;;;;;;;;;17.65;41.42;100649.16;10248128;28;857;-73
2024/02/02 16:43:14;;;;;;;;;;;;;;;17.66;41.21;100640.34;10248687;28;1906;-73
2024/02/02 16:48:09;;;;;;;;;;;;;;;17.64;41.37;100631.63;10248339;28;785;-72
2024/02/02 16:53:05;;;;;;;;;;;;;;;17.68;41.29;100637.66;10248094;28;1600;-71
2024/02/02 16:58:01;;;;;;;;;;;;;;;17.65;41.27;100627.19;10248464;28;859;-73
2024/02/02 17:02:57;;;;;;;;;;;;;;;17.63;41.25;100635.16;10248252;28;1954;-73
2024/02/02 17:07:53;;;;;;;;;;;;;;;17.66;41.32;100650.91;10247581;28;782;-73
2024/02/02 17:12:49;;;;;;;;;;;;;;;17.63;41.44;100645.72;10248050;28;925;-73
2024/02/02 17:17:45;;;;;;;;;;;;;;;17.64;41.55;100647.44;10246672;28;840;-73
2024/02/02 17:22:42;;;;;;;;;;;;;;;17.65;41.58;100638.59;10246985;28;1895;-73
2024/02/02 17:27:38;;;;;;;;;;;;;;;17.66;41.61;100636.84;10246233;28;1087;-73
2024/02/02 17:32:37;;;;;;;;;;;;;;;17.67;41.36;100642.06;10246794;28;1099;-72
2024/02/02 17:37:33;;;;;;;;;;;;;;;17.68;41.59;100654.34;10246410;28;818;-72
2024/02/02 17:42:29;;;;;;;;;;;;;;;17.68;41.62;100651.72;10246819;28;1969;-73
2024/02/02 17:47:25;;;;;;;;;;;;;;;17.69;41.45;100650.81;10246325;28;787;-73
2024/02/02 17:52:21;;;;;;;;;;;;;;;17.69;41.64;100637.63;10246189;28;974;-73
2024/02/02 17:57:17;;;;;;;;;;;;;;;17.73;41.56;100630.47;10246318;28;881;-73
2024/02/02 18:02:13;;;;;;;;;;;;;;;17.71;41.39;100616.47;10245671;28;1961;-72
2024/02/02 18:07:09;;;;;;;;;;;;;;;17.73;41.44;100636.59;10243704;28;1125;-72
2024/02/02 18:12:05;;;;;;;;;;;;;;;17.73;41.51;100627.84;10245068;28;763;-72
2024/02/02 18:17:00;;;;;;;;;;;;;;;17.74;41.50;100630.44;10246332;28;901;-72
2024/02/02 18:21:57;;;;;;;;;;;;;;;17.76;41.51;100625.09;10244774;28;1898;-72
2024/02/02 18:26:52;;;;;;;;;;;;;;;17.73;41.60;100628.69;10244617;28;891;-73
2024/02/02 18:31:48;;;;;;;;;;;;;;;17.77;41.67;100637.41;10245008;28;1276;-73
2024/02/02 18:36:44;;;;;;;;;;;;;;;17.75;41.62;100629.53;10244369;28;817;-72
2024/02/02 18:41:40;;;;;;;;;;;;;;;17.78;41.65;100627.72;10244767;28;846;-73
2024/02/02 18:46:36;;;;;;;;;;;;;;;17.78;41.82;100625.06;10243913;28;1902;-72
2024/02/02 18:51:32;;;;;;;;;;;;;;;17.78;41.65;100625.94;10244636;28;955;-72
2024/02/02 18:56:30;;;;;;;;;;;;;;;17.81;41.54;100612.69;10244070;28;882;-72
2024/02/02 19:01:26;;;;;;;;;;;;;;;17.79;41.56;100624.16;10243051;28;875;-73
2024/02/02 19:06:22;;;;;;;;;;;;;;;17.81;41.81;100636.41;10243811;28;1957;-72
2024/02/02 19:11:17;;;;;;;;;;;;;;;17.80;41.76;100629.44;10243621;28;818;-72
2024/02/02 19:16:13;;;;;;;;;;;;;;;17.80;41.83;100633.84;10244506;28;850;-72
2024/02/02 19:21:09;;;;;;;;;;;;;;;17.81;41.58;100635.56;10243617;28;956;-72
2024/02/02 19:26:05;;;;;;;;;;;;;;;17.82;41.49;100632.03;10243334;28;1922;-72
2024/02/02 19:31:01;;;;;;;;;;;;;;;17.82;41.54;100647.84;10242718;28;1114;-73
2024/02/02 19:35:57;;;;;;;;;;;;;;;17.84;41.79;100653.91;10243134;28;913;-73
2024/02/02 19:40:53;;;;;;;;;;;;;;;17.83;41.75;100658.34;10244280;28;953;-73
2024/02/02 19:45:49;;;;;;;;;;;;;;;17.84;41.78;100662.72;10242343;28;1981;-73
2024/02/02 19:50:44;;;;;;;;;;;;;;;17.86;41.79;100678.50;10242892;28;767;-73
2024/02/02 19:55:40;;;;;;;;;;;;;;;17.85;41.61;100682.03;10243644;28;825;-73
2024/02/02 20:00:36;;;;;;;;;;;;;;;17.88;41.82;100681.94;10243309;28;838;-72
2024/02/02 20:05:33;;;;;;;;;;;;;;;17.87;41.70;100685.50;10242512;28;1949;-73
2024/02/02 20:10:29;;;;;;;;;;;;;;;17.85;41.83;100685.53;10243104;28;861;-73
2024/02/02 20:15:27;;;;;;;;;;;;;;;17.85;41.88;100684.69;10247832;28;786;-73
2024/02/02 20:20:28;;;;;;;;;;;;;;;17.85;41.90;100682.03;10249450;28;945;-73
2024/02/02 20:25:24;;;;;;;;;;;;;;;17.84;41.87;100678.56;10250080;28;1959;-73
2024/02/02 20:30:19;;;;;;;;;;;;;;;17.85;41.83;100682.03;10249818;28;1472;-73
2024/02/02 20:35:16;;;;;;;;;;;;;;;17.86;41.69;100684.63;10250120;28;1040;-74
2024/02/02 20:40:12;;;;;;;;;;;;;;;17.88;41.70;100681.94;10249381;28;1719;-73
2024/02/02 20:45:08;;;;;;;;;;;;;;;17.83;41.86;100692.63;10248483;28;1922;-73
2024/02/02 20:50:04;;;;;;;;;;;;;;;17.82;41.83;100690.91;10249185;28;826;-73
2024/02/02 20:55:02;;;;;;;;;;;;;;;17.82;41.86;100692.69;10248231;28;822;-73
2024/02/02 20:59:58;;;;;;;;;;;;;;;17.81;42.01;100694.44;10247999;28;1049;-73
2024/02/02 21:04:54;;;;;;;;;;;;;;;17.80;41.93;100687.44;10247941;28;1960;-73
2024/02/02 21:09:50;;;;;;;;;;;;;;;17.80;41.95;100682.16;10248142;28;866;-72
2024/02/02 21:14:46;;;;;;;;;;;;;;;17.83;41.95;100674.16;10247465;28;944;-73
2024/02/02 21:19:43;;;;;;;;;;;;;;;17.81;42.03;100680.38;10247230;28;883;-72
2024/02/02 21:24:39;;;;;;;;;;;;;;;17.78;41.85;100680.44;10246561;28;1890;-73
2024/02/02 21:29:35;;;;;;;;;;;;;;;17.76;42.03;100683.13;10246683;28;1307;-72
2024/02/02 21:34:31;;;;;;;;;;;;;;;17.75;42.05;100686.69;10246979;28;849;-72
2024/02/02 21:39:27;;;;;;;;;;;;;;;17.74;41.93;100683.19;10246503;28;875;-72
2024/02/02 21:44:23;;;;;;;;;;;;;;;17.73;42.08;100668.25;10246155;28;1971;-73
2024/02/02 21:49:19;;;;;;;;;;;;;;;17.71;42.08;100667.44;10246097;28;786;-72
2024/02/02 21:54:15;;;;;;;;;;;;;;;17.70;41.97;100651.66;10247305;28;853;-73
2024/02/02 21:59:10;;;;;;;;;;;;;;;17.68;42.03;100643.81;10246330;28;774;-73
2024/02/02 22:04:06;;;;;;;;;;;;;;;17.66;41.89;100635.06;10245894;28;1963;-72
2024/02/02 22:09:02;;;;;;;;;;;;;;;17.65;42.09;100633.31;10245274;28;937;-72
2024/02/02 22:13:58;;;;;;;;;;;;;;;17.63;42.07;100645.72;10245130;28;873;-72
2024/02/02 22:18:54;;;;;;;;;;;;;;;17.63;42.10;100634.28;10245648;28;860;-72
2024/02/02 22:23:50;;;;;;;;;;;;;;;17.61;42.26;100647.53;10244989;28;1894;-72
2024/02/02 22:28:46;;;;;;;;;;;;;;;17.60;42.25;100651.03;10245532;28;937;-72
2024/02/02 22:33:42;;;;;;;;;;;;;;;17.58;42.03;100659.91;10243815;28;1300;-72
2024/02/02 22:38:38;;;;;;;;;;;;;;;17.57;42.03;100653.78;10243735;28;868;-72
2024/02/02 22:43:34;;;;;;;;;;;;;;;17.55;42.26;100658.22;10244919;28;1967;-72
2024/02/02 22:48:30;;;;;;;;;;;;;;;17.53;42.30;100654.78;10244345;28;806;-72
2024/02/02 22:53:26;;;;;;;;;;;;;;;17.53;42.22;100668.81;10244249;28;779;-72
2024/02/02 22:58:23;;;;;;;;;;;;;;;17.51;42.16;100660.09;10244132;28;852;-72
2024/02/02 23:03:18;;;;;;;;;;;;;;;17.51;42.04;100662.72;10244473;28;1902;-72
2024/02/02 23:08:14;;;;;;;;;;;;;;;17.51;42.19;100659.22;10243863;28;869;-72
2024/02/02 23:13:10;;;;;;;;;;;;;;;17.49;42.19;100647.84;10243739;28;882;-72
2024/02/02 23:18:06;;;;;;;;;;;;;;;17.50;42.32;100650.47;10243182;28;794;-72
2024/02/02 23:23:02;;;;;;;;;;;;;;;17.48;42.21;100656.69;10243625;28;1967;-72
2024/02/02 23:27:58;;;;;;;;;;;;;;;17.47;42.19;100652.28;10244187;28;909;-72
2024/02/02 23:32:54;;;;;;;;;;;;;;;17.47;42.44;100660.19;10244607;28;1322;-72
2024/02/02 23:37:50;;;;;;;;;;;;;;;17.46;42.38;100666.41;10243359;28;989;-72
2024/02/02 23:42:46;;;;;;;;;;;;;;;17.46;42.29;100661.13;10243900;28;1914;-72
2024/02/02 23:47:41;;;;;;;;;;;;;;;17.43;42.35;100655.94;10245329;28;931;-72
2024/02/02 23:52:37;;;;;;;;;;;;;;;17.43;42.16;100642.75;10250842;28;867;-72
2024/02/02 23:57:33;;;;;;;;;;;;;;;17.45;42.51;100643.59;10250653;28;866;-72
